Weather at Beiseker Airport

Public forecast

Using degrees Celsius for public forecast. Weather courtesy of forecast.io.

Closest aviation weather report (METAR) to Beiseker Airport

Closest report is Calgary International Airport, 26.1 nm (48.3 km) SW.

2024/05/28 23:00 (retrieved 39 minutes ago)

CYYC 282300Z 20020G29KT 15SM BKN080 BKN240 OVC300 21/05 A2982 RMK AC5CC2CI1 ACC ASOCTD SH SE SLP098 DENSITY ALT 5300FT

Closest aviation forecast (TAF) to Beiseker Airport

Closest forecast is Calgary International Airport, 26.1 nm (48.3 km) SW.

2024/05/28 22:00 Ammendment (retrieved 2 hours ago)

TAF AMD TAF AMD CYYC 282257Z 2822/2918 20015G25KT P6SM BKN100 TEMPO 2822/2902 20020G30KT P6SM -SHRA VCTS BKN080CB PROB30 2823/2902 VRB25G40KT FM290200 24012KT P6SM FEW080 SCT140 BKN180 TEMPO 2902/2904 P6SM VCSH FM290400 20010KT P6SM FEW120 BKN200 FM290900 22008KT P6SM FEW080 SCT220 BECMG 2910/2912 28015KT BECMG 2914/2916 28018G28KT RMK NXT FCST BY 290000Z